Terminal Aerodrome Forecast
Issued by NWS

Home | Current Version | Previous Version | Text Only | Print | Product List | Glossary On
Versions: 1 2 3 4 5 6 7 8 9 10 11 12
854
FTUS42 KGSP 231134
TAFGMU
TAF
KGMU 231134Z 2312/2412 05009G16KT P6SM FEW035 BKN060
     FM231800 11007KT P6SM FEW060
     FM240000 11005KT P6SM BKN060
     FM240300 08003KT P6SM BKN060=

USA.gov is the U.S. government's official web portal to all federal, state and local government web resources and services.